Tiempo atmosférico en la estación meteorológica de Tijarafe, Santa Cruz de Tenerife (733 m.)



Fecha
DESCASC
Temp. máxima en grados centígrados (hora)
DESCASC
Temp. mínima en grados centígrados (hora)
DESCASC
Temp. media en grados centígrados
DESCASC
Racha de viento máxima en m/sg (hora)
DESCASC
Velocidad máxima media en intervalos de 10 minutos(hora)
DESCASC
Precipitaciones diarias en mm
DESCASC
Precipitaciones de 00:00 a 06:00 en mm
DESCASC
Precipitaciones de 06:00 a 12:00 en mm
DESCASC
Precipitaciones de 12:00 a 18:00 en mm
DESCASC
Precipitaciones de 18:00 a 24:00 en mm
DESCASC
02-04-2020 16.6 (16:00) 11.1 (06:40) 13.9 6.39 (16:10) 3.89 (14:50) 0 0 0 0 0
01-04-2020 17.8 (13:30) 10.7 (06:40) 14.2 5 (13:20) 2.78 (13:20) 0 0 0 0 0
31-03-2020 16.9 (15:30) 11.2 (00:00) 14 8.06 (16:10) 5.56 (17:30) 0.4 0.4 0 0 0
30-03-2020 16.9 (16:40) 11.4 (03:40) 14.1 11.67 (18:10) 6.94 (17:50) 0 0 0 0 0
29-03-2020 14.8 (17:50) 10.1 (00:00) 12.5 5.56 (20:20) 3.33 (20:20) 0 0 0 0 0
28-03-2020 16 (14:50) 8.6 (00:00) 12.3 8.33 (17:10) 4.44 (16:30) 0 0 0 0 0
27-03-2020 15.9 (17:50) 10.1 (00:00) 13 14.17 (13:10) 9.44 (13:40) 0 0 0 0 0
26-03-2020 15.2 (10:50) 10.4 (00:00) 12.8 5.56 (16:50) 3.33 (02:10) 0 0 0 0 0
25-03-2020 15.9 (17:50) 10.8 (00:00) 13.3 5.28 (13:00) 3.61 (18:30) 0 0 0 0 0
24-03-2020 18.6 (16:50) 10.3 (00:00) 14.5 7.22 (17:00) 3.06 (11:30) 0 0 0 0 0
23-03-2020 17.7 (15:30) 7.8 (00:00) 12.8 23.89 (01:10) 13.33 (00:10) 7.8 5.6 2.2 0 0
22-03-2020 14.3 (12:10) 9 (23:50) 11.7 20.56 (14:40) 13.61 (15:20) 1.6 0 0 0.2 1.4
21-03-2020 17.6 (15:00) 9.9 (00:00) 13.8 5.83 (14:10) 2.78 (14:20) 0 0 0 0 0
20-03-2020 18.2 (12:50) 11.3 (00:00) 14.8 5.83 (10:40) 2.5 (11:10) 0 0 0 0 0
19-03-2020 19.9 (14:50) 9.9 (00:00) 14.9 6.67 (14:20) 3.33 (17:10) 0 0 0 0 0
18-03-2020 16.9 (15:00) 9.5 (00:00) 13.2 6.11 (11:30) 2.78 (14:00) 0 0 0 0 0
17-03-2020 15.4 (14:30) 9.5 (00:00) 12.4 7.5 (12:00) 4.17 (12:00) 0 0 0 0 0
16-03-2020 17.6 (13:20) 10.4 (00:00) 14 8.89 (17:10) 4.44 (17:30) 0 0 0 0 0
15-03-2020 17.4 (15:00) 10.7 (00:00) 14 5.83 (12:40) 3.89 (20:00) 0 0 0 0 0
14-03-2020 17.5 (13:10) 11.7 (00:00) 14.6 6.39 (08:10) 3.33 (17:50) 0 0 0 0 0
13-03-2020 22.2 (11:10) 13.8 (23:00) 18 6.11 (22:50) 3.06 (22:40) 0 0 0 0 0
12-03-2020 24.9 (16:50) 19.4 (00:00) 22.1 7.78 (15:00) 5.56 (15:10) 0 0 0 0 0
11-03-2020 25.8 (16:00) 15.3 (00:00) 20.5 7.22 (06:20) 3.33 (05:10) 0 0 0 0 0
10-03-2020 25.1 (11:10) 17.5 (00:00) 21.3 9.44 (08:30) 5.56 (16:30) 0 0 0 0 0
09-03-2020 25.3 (13:30) 18.7 (00:00) 22 11.67 (02:00) 3.33 (16:30) 0 0 0 0 0
08-03-2020 25.5 (16:40) 10.8 (00:00) 18.2 7.22 (21:40) 4.17 (01:40) 0 0 0 0 0
07-03-2020 18.2 (14:50) 10.2 (00:00) 14.2 10.28 (08:50) 4.17 (04:00) 0 0 0 0 0
06-03-2020 19 (14:00) 11.5 (00:00) 15.3 9.72 (10:10) 5.28 (10:10) 0 0 0 0 0
05-03-2020 22.3 (14:00) 14.2 (00:00) 18.2 6.11 (21:50) 4.72 (19:30) 0 0 0 0 0

Gráficas

Temp. máximas Temp. mínimas Temp. medias Precipitaciones Rachas de viento máximas Velocidades máximas media en intervalos de 10 minutos

Datos horarios

Fecha y hora oficial Temperatura (ºC) Velocidad del viento (km/h) Dirección del viento Racha (km/h) Dirección de racha Precipitación (mm) Presión (hPa) Tendencia (hPa) Humedad (%)
2020-04-03 23:00:00 14.3 14 Norte 33 Norte 0 -- -- 100
2020-04-03 22:00:00 14.6 17 Noroeste 27 Noroeste 0 -- -- 100
2020-04-03 21:00:00 14.6 19 Norte 34 Norte 0 -- -- 99
2020-04-03 20:00:00 15.1 23 Noroeste 42 Noroeste 0.2 -- -- 99
2020-04-03 19:00:00 15.6 26 Noroeste 39 Noroeste 0 -- -- 99
2020-04-03 18:00:00 15.6 18 Noroeste 44 Oeste 3.8 -- -- 99
2020-04-03 17:00:00 15.1 17 Noroeste 27 Noroeste 1.6 -- -- 99
2020-04-03 16:00:00 14.8 15 Noroeste 26 Noroeste 1.6 -- -- 98
2020-04-03 15:00:00 14.6 7 Oeste 25 Noroeste 0.8 -- -- 98
2020-04-03 14:00:00 14.2 4 Nordeste 13 Sudeste 1.4 -- -- 97
2020-04-03 13:00:00 14.3 3 Norte 10 Sudoeste 0.4 -- -- 96
2020-04-03 12:00:00 14.6 6 Norte 29 Sudeste 0 -- -- 83
2020-04-03 11:00:00 14.2 4 Noroeste 13 Noroeste 0 -- -- 87
2020-04-03 10:00:00 12.8 6 Noroeste 15 Noroeste 0 -- -- 84
2020-04-03 09:00:00 11.8 3 Nordeste 10 Nordeste 0 -- -- 93
2020-04-03 08:00:00 11.5 3 Nordeste 9 Norte 0 -- -- 89
2020-04-03 07:00:00 11.5 3 Norte 9 Nordeste 0 -- -- 90
2020-04-03 06:00:00 11.9 4 Norte 12 Sudoeste 0 -- -- 94
2020-04-03 05:00:00 11.5 3 Nordeste 12 Nordeste 0 -- -- 88
2020-04-03 04:00:00 11.4 4 Norte 16 Sudoeste 0 -- -- 92
2020-04-03 03:00:00 11.7 4 Nordeste 13 Nordeste 0 -- -- 92
2020-04-03 02:00:00 11.8 4 Norte 13 Oeste 0 -- -- 92
2020-04-03 01:00:00 12 3 Noroeste 8 Sudeste 0 -- -- 93
2020-04-03 00:00:00 12.4 2 Nordeste 8 Nordeste 0 -- -- 91
2020-04-02 23:00:00 12.9 2 Oeste 6 Oeste 0 -- -- 91
2020-04-02 22:00:00 13.1 2 Norte 8 Nordeste 0 -- -- 93
2020-04-02 21:00:00 13.3 3 Nordeste 9 Norte 0 -- -- 92
2020-04-02 20:00:00 14 4 Nordeste 11 Nordeste 0 -- -- 88
2020-04-02 19:00:00 14.3 5 Noroeste 15 Noroeste 0 -- -- 87
2020-04-02 18:00:00 15 7 Noroeste 17 Noroeste 0 -- -- 81
2020-04-02 17:00:00 15.5 8 Norte 23 Noroeste 0 -- -- 80
2020-04-02 16:00:00 16.6 13 Noroeste 21 Noroeste 0 -- -- 75
2020-04-02 15:00:00 14.6 11 Noroeste 22 Norte 0 -- -- 86
2020-04-02 14:00:00 14.9 9 Noroeste 16 Noroeste 0 -- -- 84
2020-04-02 13:00:00 15.6 4 Noroeste 13 Noroeste 0 -- -- 80
2020-04-02 12:00:00 15 4 Noroeste 15 Noroeste 0 -- -- 81
2020-04-02 11:00:00 15 3 Norte 10 Noroeste 0 -- -- 81
2020-04-02 10:00:00 13.1 2 Norte 4 Nordeste 0 -- -- 83
2020-04-02 09:00:00 11.4 0 Calma 15 Norte 0 -- -- 88
2020-04-02 08:00:00 11.1 4 Noroeste 10 Noroeste 0 -- -- 89
2020-04-02 07:00:00 11.2 7 Nordeste 10 Norte 0 -- -- 90
2020-04-02 06:00:00 11.3 5 Norte 11 Sudeste 0 -- -- 88
2020-04-02 05:00:00 11.2 10 Nordeste 15 Norte 0 -- -- 89
2020-04-02 04:00:00 11.5 3 Este 13 Nordeste 0 -- -- 88
2020-04-02 03:00:00 11.6 3 Noroeste 6 Norte 0 -- -- 95
2020-04-02 02:00:00 11.8 0 Calma 2 Nordeste 0 -- -- 94
2020-04-02 01:00:00 12.2 0 Calma 5 Noroeste 0 -- -- 92
2020-04-02 00:00:00 12.8 0 Calma 6 Norte 0 -- -- 90
2020-04-01 23:00:00 12.8 3 Norte 4 Norte 0 -- -- 92
2020-04-01 22:00:00 13.3 2 Noroeste 8 Noroeste 0 -- -- 90
2020-04-01 21:00:00 13.6 0 Calma 10 Noroeste 0 -- -- 89
2020-04-01 20:00:00 14.2 2 Norte 8 Norte 0 -- -- 85
2020-04-01 19:00:00 14.1 4 Noroeste 13 Noroeste 0 -- -- 84
2020-04-01 18:00:00 14.3 8 Noroeste 15 Noroeste 0 -- -- 82
2020-04-01 17:00:00 15.7 6 Noroeste 17 Noroeste 0 -- -- 75
2020-04-01 16:00:00 17 10 Noroeste 18 Noroeste 0 -- -- 70
2020-04-01 15:00:00 15.9 9 Noroeste 18 Noroeste 0 -- -- 74
2020-04-01 14:00:00 15.8 7 Noroeste 18 Noroeste 0 -- -- 75
2020-04-01 13:00:00 16.4 5 Noroeste 17 Noroeste 0 -- -- 72
2020-04-01 12:00:00 15.8 5 Noroeste 13 Noroeste 0 -- -- 73
2020-04-01 11:00:00 14.6 2 Norte 16 Oeste 0 -- -- 80
2020-04-01 10:00:00 12.6 4 Este 13 Sudoeste 0 -- -- 88
2020-04-01 09:00:00 11 0 Calma 4 Norte 0 -- -- 96
2020-04-01 08:00:00 10.8 0 Calma 2 Sur 0 -- -- 92
2020-04-01 07:00:00 10.8 0 Calma 4 Nordeste 0 -- -- 92
2020-04-01 06:00:00 10.9 4 Norte 6 Nordeste 0 -- -- 92
2020-04-01 05:00:00 11.1 0 Calma 4 Oeste 0 -- -- 92
2020-04-01 04:00:00 11.2 0 Calma 3 Sudoeste 0 -- -- 88
2020-04-01 03:00:00 11.6 0 Calma 6 Norte 0 -- -- 90
2020-04-01 02:00:00 11.5 4 Norte 6 Norte 0 -- -- 86
2020-04-01 01:00:00 11.6 0 Calma 4 Norte 0 -- -- 90
2020-04-01 00:00:00 11.8 2 Norte 7 Este 0 -- -- 92
2020-03-31 23:00:00 12.4 0 Calma 5 Este 0 -- -- 88
2020-03-31 22:00:00 12.3 2 Norte 6 Norte 0 -- -- 88
2020-03-31 21:00:00 12.7 7 Norte 23 Norte 0 -- -- 89
2020-03-31 20:00:00 14.7 13 Norte 26 Norte 0 -- -- 80
2020-03-31 19:00:00 15.9 18 Norte 24 Norte 0 -- -- 72
2020-03-31 18:00:00 16.2 18 Norte 27 Norte 0 -- -- 70
2020-03-31 17:00:00 16.3 19 Norte 29 Norte 0 -- -- 74
2020-03-31 16:00:00 16.4 18 Norte 28 Noroeste 0 -- -- 70
2020-03-31 15:00:00 16.3 12 Norte 23 Noroeste 0 -- -- 69
2020-03-31 14:00:00 15.9 16 Norte 27 Noroeste 0 -- -- 70
2020-03-31 13:00:00 15.6 16 Norte 24 Noroeste 0 -- -- 69
2020-03-31 12:00:00 15.3 9 Norte 18 Noroeste 0 -- -- 70
2020-03-31 11:00:00 14.5 4 Nordeste 14 Norte 0 -- -- 74
2020-03-31 10:00:00 13.2 2 Nordeste 15 Nordeste 0 -- -- 72
2020-03-31 09:00:00 11.5 11 Norte 18 Nordeste 0 -- -- 79
2020-03-31 08:00:00 11.2 5 Nordeste 20 Nordeste 0 -- -- 77
2020-03-31 07:00:00 11.5 13 Nordeste 17 Norte 0 -- -- 81
2020-03-31 06:00:00 11.6 8 Nordeste 19 Nordeste 0 -- -- 81
2020-03-31 05:00:00 11.6 13 Norte 19 Norte 0 -- -- 84
2020-03-31 04:00:00 12 9 Norte 22 Norte 0 -- -- 89
2020-03-31 03:00:00 12.4 16 Norte 25 Nordeste 0 -- -- 90
2020-03-31 02:00:00 12 7 Nordeste 21 Norte 0 -- -- 97
2020-03-31 01:00:00 12.9 12 Norte 23 Nordeste 0.4 -- -- 98
2020-03-31 00:00:00 13.2 6 Nordeste 13 Norte 0 -- -- 97
2020-03-30 23:00:00 13.4 4 Nordeste 17 Norte 0 -- -- 94
2020-03-30 22:00:00 13.6 13 Nordeste 24 Norte 0 -- -- 81
2020-03-30 21:00:00 13.6 20 Norte 28 Norte 0 -- -- 81
2020-03-30 20:00:00 15.2 21 Norte 32 Norte 0 -- -- 73
2020-03-30 19:00:00 15.8 25 Norte 42 Norte 0 -- -- 72
2020-03-30 18:00:00 16.4 24 Norte 35 Norte 0 -- -- 78
2020-03-30 17:00:00 16.6 21 Norte 30 Norte 0 -- -- 79
2020-03-30 16:00:00 16.3 16 Norte 27 Norte 0 -- -- 81
2020-03-30 15:00:00 15.6 16 Norte 28 Norte 0 -- -- 81
2020-03-30 14:00:00 15.5 12 Noroeste 23 Norte 0 -- -- 85
2020-03-30 13:00:00 15.7 14 Noroeste 21 Noroeste 0 -- -- 82
2020-03-30 12:00:00 14.4 10 Norte 18 Noroeste 0 -- -- 87
2020-03-30 11:00:00 13.9 6 Norte 16 Norte 0 -- -- 88
2020-03-30 10:00:00 12.6 7 Nordeste 15 Norte 0 -- -- 95
2020-03-30 09:00:00 11.7 13 Nordeste 18 Nordeste 0 -- -- 98
2020-03-30 08:00:00 11.6 11 Norte 19 Norte 0 -- -- 97
2020-03-30 07:00:00 11.4 13 Nordeste 19 Nordeste 0 -- -- 97
2020-03-30 06:00:00 11.5 8 Nordeste 17 Nordeste 0 -- -- 95
2020-03-30 05:00:00 11.5 10 Nordeste 14 Nordeste 0 -- -- 94
2020-03-30 04:00:00 11.4 8 Nordeste 18 Nordeste 0 -- -- 94
2020-03-30 03:00:00 11.5 9 Norte 16 Nordeste 0 -- -- 92
2020-03-30 02:00:00 11.6 8 Nordeste 15 Este 0 -- -- 89
2020-03-30 01:00:00 11.8 6 Nordeste 15 Nordeste 0 -- -- 88
2020-03-30 00:00:00 11.8 10 Nordeste 17 Norte 0 -- -- 87
2020-03-29 23:00:00 12 8 Norte 17 Norte 0 -- -- 87
2020-03-29 22:00:00 12.1 11 Norte 19 Norte 0 -- -- 87
2020-03-29 21:00:00 12.3 10 Norte 20 Norte 0 -- -- 87
2020-03-29 20:00:00 13 10 Norte 17 Norte 0 -- -- 85
2020-03-29 19:00:00 13.6 7 Noroeste 17 Noroeste 0 -- -- 83
2020-03-29 18:00:00 14.8 9 Norte 19 Noroeste 0 -- -- 78
2020-03-29 17:00:00 13.7 10 Noroeste 17 Noroeste 0 -- -- 82
2020-03-29 16:00:00 13.3 7 Noroeste 17 Noroeste 0 -- -- 89
2020-03-29 15:00:00 13.5 6 Noroeste 18 Noroeste 0 -- -- 85
2020-03-29 14:00:00 13.8 8 Noroeste 18 Noroeste 0 -- -- 78
2020-03-29 13:00:00 14 9 Norte 17 Noroeste 0 -- -- 78
2020-03-29 12:00:00 13.3 6 Noroeste 12 Noroeste 0 -- -- 81
2020-03-29 11:00:00 14 3 Norte 8 Norte 0 -- -- 76
2020-03-29 10:00:00 12.4 5 Nordeste 10 Este 0 -- -- 66
2020-03-29 09:00:00 10.5 0 Calma 6 Sudeste 0 -- -- 72
2020-03-29 08:00:00 10.6 0 Calma 9 Sudeste 0 -- -- 74
2020-03-29 07:00:00 10.2 3 Norte 12 Nordeste 0 -- -- 82
2020-03-29 06:00:00 10.3 6 Nordeste 12 Este 0 -- -- 83
2020-03-29 05:00:00 10.3 5 Nordeste 9 Nordeste 0 -- -- 84
2020-03-29 04:00:00 10.2 3 Norte 4 Norte 0 -- -- 82
2020-03-29 00:00:00 10.5 3 Nordeste 8 Norte 0 -- -- 79
2020-03-28 23:00:00 10.6 4 Nordeste 6 Nordeste 0 -- -- 80
2020-03-28 22:00:00 11.1 3 Este 11 Nordeste 0 -- -- 87
2020-03-28 21:00:00 11.2 2 Norte 9 Norte 0 -- -- 87
2020-03-28 20:00:00 11.8 6 Norte 16 Norte 0 -- -- 86
2020-03-28 19:00:00 13.9 14 Norte 21 Norte 0 -- -- 73
2020-03-28 18:00:00 15.2 14 Norte 30 Norte 0 -- -- 66
2020-03-28 17:00:00 15.5 14 Norte 26 Norte 0 -- -- 64
2020-03-28 16:00:00 15.9 14 Norte 25 Noroeste 0 -- -- 57
2020-03-28 15:00:00 15.8 10 Noroeste 27 Noroeste 0 -- -- 58
2020-03-28 14:00:00 15.4 9 Noroeste 20 Noroeste 0 -- -- 60
2020-03-28 13:00:00 15 7 Noroeste 21 Noroeste 0 -- -- 61
2020-03-28 12:00:00 14.8 8 Norte 18 Norte 0 -- -- 64
2020-03-28 11:00:00 14.2 4 Norte 9 Noroeste 0 -- -- 61
2020-03-28 10:00:00 13.3 3 Norte 7 Noroeste 0 -- -- 67
2020-03-28 09:00:00 11.4 2 Nordeste 10 Este 0 -- -- 72
2020-03-28 08:00:00 9.2 3 Norte 7 Norte 0 -- -- 77
2020-03-28 07:00:00 8.7 0 Calma 4 Noroeste 0 -- -- 81
2020-03-28 06:00:00 8.8 0 Calma 7 Sudeste 0 -- -- 78
2020-03-28 05:00:00 9.3 0 Calma 9 Nordeste 0 -- -- 78
2020-03-28 04:00:00 9.6 2 Norte 7 Nordeste 0 -- -- 75
2020-03-28 03:00:00 9.6 2 Noroeste 8 Norte 0 -- -- 72
2020-03-28 02:00:00 10.2 4 Noroeste 17 Sudeste 0 -- -- 68
2020-03-28 01:00:00 10.2 4 Norte 18 Noroeste 0 -- -- 64
2020-03-28 00:00:00 10.6 0 Calma 21 Noroeste 0 -- -- 61
2020-03-27 23:00:00 11.2 3 Noroeste 27 Noroeste 0 -- -- 61
2020-03-27 22:00:00 11.6 16 Norte 36 Norte 0 -- -- 58
2020-03-27 21:00:00 11.7 2 Sudeste 10 Oeste 0 -- -- 60
2020-03-27 20:00:00 12.7 4 Oeste 19 Norte 0 -- -- 65
2020-03-27 19:00:00 14.6 13 Norte 22 Noroeste 0 -- -- 50
2020-03-27 18:00:00 15.3 8 Sudeste 30 Norte 0 -- -- 70
2020-03-27 17:00:00 13.4 24 Norte 44 Norte 0 -- -- 81
2020-03-27 16:00:00 14.4 31 Norte 46 Norte 0 -- -- 75
2020-03-27 15:00:00 13.3 27 Norte 49 Norte 0 -- -- 86
2020-03-27 14:00:00 13.9 18 Norte 51 Norte 0 -- -- 78
2020-03-27 13:00:00 13.7 28 Norte 39 Norte 0 -- -- 83
2020-03-27 12:00:00 13 21 Norte 36 Norte 0 -- -- 90
2020-03-27 11:00:00 12.3 21 Norte 31 Norte 0 -- -- 88
2020-03-27 10:00:00 12.1 12 Norte 21 Norte 0 -- -- 86
2020-03-27 09:00:00 11.7 3 Este 9 Este 0 -- -- 82
2020-03-27 08:00:00 10.6 3 Noroeste 11 Sudeste 0 -- -- 88
2020-03-27 07:00:00 10.1 0 Calma 14 Norte 0 -- -- 90
2020-03-27 06:00:00 10.3 6 Norte 13 Norte 0 -- -- 86
2020-03-27 05:00:00 10.3 0 Calma 5 Este 0 -- -- 89
2020-03-27 04:00:00 10.7 0 Calma 8 Este 0 -- -- 89
2020-03-27 03:00:00 10.4 0 Calma 6 Noroeste 0 -- -- 89
2020-03-27 02:00:00 11.2 2 Oeste 4 Noroeste 0 -- -- 88
2020-03-27 01:00:00 11.1 0 Calma 2 Norte 0 -- -- 89
2020-03-27 00:00:00 11.1 0 Calma 6 Nordeste 0 -- -- 87
2020-03-26 23:00:00 11.3 2 Nordeste 6 Nordeste 0 -- -- 88
2020-03-26 22:00:00 11.3 0 Calma 6 Sudoeste 0 -- -- 87
2020-03-26 21:00:00 11.6 2 Nordeste 6 Sudoeste 0 -- -- 84
2020-03-26 20:00:00 12.7 0 Calma 10 Noroeste 0 -- -- 79
2020-03-26 19:00:00 14.5 3 Noroeste 10 Noroeste 0 -- -- 60
2020-03-26 18:00:00 13.8 4 Oeste 14 Oeste 0 -- -- 69
2020-03-26 17:00:00 13.8 4 Noroeste 20 Sudoeste 0 -- -- 78
2020-03-26 16:00:00 14 3 Norte 13 Sudoeste 0 -- -- 73
2020-03-26 15:00:00 13 3 Noroeste 12 Noroeste 0 -- -- 83
2020-03-26 14:00:00 12.9 6 Norte 13 Noroeste 0 -- -- 82
2020-03-26 13:00:00 12.8 7 Noroeste 15 Norte 0 -- -- 82
2020-03-26 12:00:00 13.1 8 Norte 18 Noroeste 0 -- -- 80
2020-03-26 11:00:00 15 4 Norte 14 Noroeste 0 -- -- 68
2020-03-26 10:00:00 13.6 4 Norte 15 Sudoeste 0 -- -- 77
2020-03-26 09:00:00 12.5 5 Noroeste 13 Nordeste 0 -- -- 85
2020-03-26 08:00:00 10.8 3 Norte 7 Nordeste 0 -- -- 86
2020-03-26 07:00:00 10.4 3 Norte 9 Norte 0 -- -- 88
2020-03-26 06:00:00 10.9 4 Sudeste 12 Este 0 -- -- 73
2020-03-26 05:00:00 10.8 4 Norte 8 Norte 0 -- -- 82
2020-03-26 04:00:00 11.1 2 Noroeste 6 Noroeste 0 -- -- 84
2020-03-26 03:00:00 11.3 3 Norte 17 Norte 0 -- -- 85
2020-03-26 02:00:00 11.4 11 Norte 14 Norte 0 -- -- 79
2020-03-26 01:00:00 11.5 4 Nordeste 14 Nordeste 0 -- -- 74
2020-03-26 00:00:00 11.9 5 Norte 11 Sudoeste 0 -- -- 81
2020-03-25 23:00:00 12.1 3 Noroeste 12 Sudoeste 0 -- -- 73
2020-03-25 22:00:00 12.2 3 Nordeste 10 Nordeste 0 -- -- 70
2020-03-25 21:00:00 12.4 3 Norte 8 Nordeste 0 -- -- 73
2020-03-25 20:00:00 12.6 0 Calma 10 Noroeste 0 -- -- 73
2020-03-25 19:00:00 12.9 8 Norte 18 Noroeste 0 -- -- 67
2020-03-25 18:00:00 15.6 7 Norte 16 Norte 0 -- -- 65
2020-03-25 17:00:00 14.2 5 Norte 13 Noroeste 0 -- -- 73
2020-03-25 16:00:00 13.2 6 Noroeste 18 Noroeste 0 -- -- 78
2020-03-25 15:00:00 13.8 9 Noroeste 18 Noroeste 0 -- -- 75
2020-03-25 14:00:00 15.2 6 Noroeste 18 Oeste 0 -- -- 65
2020-03-25 13:00:00 15.6 9 Noroeste 19 Oeste 0 -- -- 65
2020-03-25 12:00:00 13.9 4 Noroeste 13 Norte 0 -- -- 71
2020-03-25 11:00:00 14.1 8 Noroeste 15 Noroeste 0 -- -- 72
2020-03-25 10:00:00 14.5 7 Noroeste 16 Oeste 0 -- -- 72
2020-03-25 09:00:00 12.4 3 Noroeste 9 Oeste 0 -- -- 81
2020-03-25 08:00:00 11.6 2 Norte 11 Noroeste 0 -- -- 79
2020-03-25 07:00:00 11.3 2 Norte 7 Nordeste 0 -- -- 84
2020-03-25 06:00:00 11.4 0 Calma 5 Sudeste 0 -- -- 90
2020-03-25 05:00:00 11.4 0 Calma 7 Norte 0 -- -- 86
2020-03-25 04:00:00 10.8 2 Norte 6 Norte 0 -- -- 80
2020-03-25 03:00:00 11.3 0 Calma 3 Sur 0 -- -- 83
2020-03-25 02:00:00 11.6 2 Este 3 Este 0 -- -- 80
2020-03-25 01:00:00 11.4 0 Calma 6 Nordeste 0 -- -- 86
2020-03-25 00:00:00 11.4 2 Noroeste 6 Oeste 0 -- -- 86
2020-03-24 23:00:00 11.8 0 Calma 6 Norte 0 -- -- 85
2020-03-24 22:00:00 11.9 2 Norte 10 Este 0 -- -- 85
2020-03-24 21:00:00 12.3 2 Nordeste 11 Este 0 -- -- 78
2020-03-24 20:00:00 13.3 2 Noroeste 14 Oeste 0 -- -- 72
2020-03-24 19:00:00 16.3 3 Noroeste 14 Noroeste 0 -- -- 59
2020-03-24 18:00:00 17.9 4 Noroeste 18 Norte 0 -- -- 52
2020-03-24 17:00:00 18.2 9 Noroeste 26 Oeste 0 -- -- 52
2020-03-24 16:00:00 17.8 6 Noroeste 23 Oeste 0 -- -- 57
2020-03-24 15:00:00 17.1 6 Noroeste 19 Noroeste 0 -- -- 61
2020-03-24 14:00:00 15.6 5 Noroeste 20 Noroeste 0 -- -- 70
2020-03-24 13:00:00 15.5 8 Noroeste 22 Noroeste 0 -- -- 73
2020-03-24 12:00:00 15.1 5 Noroeste 23 Noroeste 0 -- -- 75
2020-03-24 11:00:00 14.9 8 Sudoeste 17 Sur 0 -- -- 74
2020-03-24 10:00:00 14 4 Norte 14 Sudoeste 0 -- -- 74
2020-03-24 09:00:00 12.7 0 Calma 8 Este 0 -- -- 84
2020-03-24 08:00:00 11 0 Calma 6 Sudeste 0 -- -- 84
2020-03-24 07:00:00 10.7 3 Nordeste 10 Sudeste 0 -- -- 83
2020-03-24 06:00:00 10.7 5 Sudeste 9 Sudeste 0 -- -- 89
2020-03-24 05:00:00 10.8 0 Calma 6 Sur 0 -- -- 93
2020-03-24 04:00:00 10.7 0 Calma 14 Nordeste 0 -- -- 81
2020-03-24 03:00:00 11.1 4 Nordeste 13 Sudeste 0 -- -- 78
2020-03-24 02:00:00 10.9 2 Norte 13 Este 0 -- -- 85
2020-03-24 01:00:00 11.5 4 Este 12 Sur 0 -- -- 80
2020-03-24 00:00:00 11.3 4 Norte 14 Este 0 -- -- 81
2020-03-23 23:00:00 11.9 2 Noroeste 12 Noroeste 0 -- -- 81
2020-03-23 22:00:00 11.7 4 Oeste 8 Noroeste 0 -- -- 79
2020-03-23 21:00:00 12.1 3 Nordeste 12 Sur 0 -- -- 80
2020-03-23 20:00:00 13 0 Calma 11 Nordeste 0 -- -- 79
2020-03-23 19:00:00 15.4 3 Norte 12 Sudoeste 0 -- -- 70
2020-03-23 18:00:00 16.4 4 Noroeste 14 Noroeste 0 -- -- 65
2020-03-23 17:00:00 16.7 5 Oeste 15 Sudoeste 0 -- -- 63
2020-03-23 16:00:00 17.6 4 Norte 22 Noroeste 0 -- -- 63
2020-03-23 15:00:00 16.7 6 Noroeste 20 Noroeste 0 -- -- 63
2020-03-23 14:00:00 15.1 9 Nordeste 28 Este 0 -- -- 67
2020-03-23 13:00:00 14.3 6 Noroeste 13 Este 0 -- -- 71
2020-03-23 12:00:00 12.8 5 Noroeste 19 Oeste 0 -- -- 79
2020-03-23 11:00:00 12.1 6 Oeste 31 Sudoeste 0 -- -- 78
2020-03-23 10:00:00 12.1 6 Noroeste 30 Sudeste 0 -- -- 77
2020-03-23 09:00:00 11.7 19 Este 55 Este 0.2 -- -- 70
2020-03-23 08:00:00 10.4 26 Este 50 Este 1 -- -- 86
2020-03-23 07:00:00 9.1 29 Nordeste 59 Nordeste 1 -- -- 94
2020-03-23 06:00:00 9.8 30 Norte 57 Nordeste 0.2 -- -- 88
2020-03-23 05:00:00 10.3 29 Nordeste 67 Nordeste 0.2 -- -- 68
2020-03-23 04:00:00 9.6 33 Nordeste 67 Nordeste 0.2 -- -- 81
2020-03-23 03:00:00 8.3 33 Nordeste 76 Norte 1.4 -- -- 93
2020-03-23 02:00:00 8.8 37 Norte 86 Norte 1.2 -- -- 98
2020-03-23 01:00:00 8.4 27 Norte 70 Nordeste 2.4 -- -- 97
2020-03-23 00:00:00 9.4 42 Nordeste 69 Nordeste 0.8 -- -- 84
2020-03-22 23:00:00 9.9 46 Nordeste 71 Nordeste 0 -- -- 83
2020-03-22 22:00:00 10.3 35 Norte 59 Norte 0.4 -- -- 87
2020-03-22 21:00:00 10.5 29 Norte 57 Norte 0.2 -- -- 80
2020-03-22 20:00:00 10.7 33 Norte 58 Nordeste 0 -- -- 82
2020-03-22 19:00:00 11.6 36 Norte 62 Nordeste 0 -- -- 77
2020-03-22 18:00:00 13.1 36 Norte 61 Norte 0 -- -- 71
2020-03-22 17:00:00 13.7 37 Norte 64 Nordeste 0 -- -- 62
2020-03-22 16:00:00 12.7 37 Norte 67 Norte 0 -- -- 91
2020-03-22 15:00:00 11.7 45 Nordeste 74 Norte 0 -- -- 96
2020-03-22 14:00:00 11.1 36 Norte 69 Norte 0.2 -- -- 98
2020-03-22 13:00:00 13.8 37 Norte 66 Noroeste 0 -- -- 72
2020-03-22 12:00:00 13.8 39 Norte 58 Norte 0 -- -- 72
2020-03-22 11:00:00 13.4 33 Norte 48 Norte 0 -- -- 71
2020-03-22 10:00:00 13.3 5 Nordeste 47 Norte 0 -- -- 64
2020-03-22 09:00:00 11.9 6 Norte 23 Noroeste 0 -- -- 70
2020-03-22 08:00:00 9.5 2 Norte 10 Sudeste 0 -- -- 81
2020-03-22 07:00:00 9.3 4 Nordeste 9 Este 0 -- -- 83
2020-03-22 06:00:00 9.9 3 Norte 14 Sudeste 0 -- -- 81
2020-03-22 05:00:00 9.9 3 Norte 8 Este 0 -- -- 78
2020-03-22 04:00:00 10 0 Calma 5 Norte 0 -- -- 79
2020-03-22 03:00:00 10 0 Calma 6 Nordeste 0 -- -- 77
2020-03-22 02:00:00 11 0 Calma 6 Oeste 0 -- -- 73
2020-03-22 01:00:00 11.2 0 Calma 6 Sudoeste 0 -- -- 76
2020-03-22 00:00:00 10.9 0 Calma 3 Nordeste 0 -- -- 77
2020-03-21 23:00:00 10.8 0 Calma 5 Nordeste 0 -- -- 77
2020-03-21 22:00:00 11.3 0 Calma 3 Nordeste 0 -- -- 76
2020-03-21 21:00:00 11.8 0 Calma 5 Nordeste 0 -- -- 73
2020-03-21 20:00:00 12.8 0 Calma 11 Este 0 -- -- 68
2020-03-21 19:00:00 14.7 4 Nordeste 13 Nordeste 0 -- -- 60
2020-03-21 18:00:00 15.3 4 Noroeste 18 Noroeste 0 -- -- 57
2020-03-21 17:00:00 16.1 5 Noroeste 17 Noroeste 0 -- -- 56
2020-03-21 16:00:00 16.6 8 Oeste 20 Sur 0 -- -- 52
2020-03-21 15:00:00 17.6 10 Noroeste 21 Oeste 0 -- -- 52
2020-03-21 14:00:00 16.1 8 Noroeste 20 Noroeste 0 -- -- 53
2020-03-21 13:00:00 15.9 8 Noroeste 20 Noroeste 0 -- -- 53
2020-03-21 12:00:00 15.5 5 Noroeste 19 Norte 0 -- -- 55
2020-03-21 11:00:00 15.4 4 Noroeste 11 Noroeste 0 -- -- 60
2020-03-21 10:00:00 14.3 2 Noroeste 11 Sudoeste 0 -- -- 63
2020-03-21 09:00:00 12 0 Calma 9 Nordeste 0 -- -- 70
2020-03-21 08:00:00 10.9 3 Noroeste 10 Nordeste 0 -- -- 69
2020-03-21 07:00:00 10.9 2 Noroeste 9 Sudeste 0 -- -- 71
2020-03-21 06:00:00 10.5 3 Norte 9 Sudeste 0 -- -- 77
2020-03-21 05:00:00 9.9 0 Calma 6 Norte 0 -- -- 83
2020-03-21 04:00:00 10.3 3 Nordeste 11 Sur 0 -- -- 76
2020-03-21 03:00:00 10.7 2 Sur 12 Sudeste 0 -- -- 78
2020-03-21 02:00:00 10.6 5 Sur 11 Oeste 0 -- -- 74
2020-03-21 01:00:00 11 3 Sur 10 Sudoeste 0 -- -- 74
2020-03-21 00:00:00 11.9 0 Calma 4 Sudoeste 0 -- -- 87
2020-03-20 23:00:00 12.2 0 Calma 8 Sudoeste 0 -- -- 88
2020-03-20 22:00:00 12.3 3 Sudoeste 9 Sudeste 0 -- -- 89
2020-03-20 21:00:00 12.7 2 Nordeste 13 Sudoeste 0 -- -- 86
2020-03-20 20:00:00 13.1 3 Nordeste 12 Nordeste 0 -- -- 85
2020-03-20 19:00:00 14.9 3 Sur 14 Sudoeste 0 -- -- 78
2020-03-20 18:00:00 16.4 4 Sudeste 16 Noroeste 0 -- -- 70
2020-03-20 17:00:00 17.3 7 Noroeste 18 Oeste 0 -- -- 65
2020-03-20 16:00:00 17.2 5 Oeste 14 Oeste 0 -- -- 61
2020-03-20 15:00:00 15.3 5 Noroeste 13 Sudoeste 0 -- -- 70
2020-03-20 14:00:00 15.8 5 Oeste 16 Sur 0 -- -- 69
2020-03-20 13:00:00 17.8 6 Norte 20 Este 0 -- -- 68
2020-03-20 12:00:00 17.3 5 Norte 18 Noroeste 0 -- -- 72
2020-03-20 11:00:00 16.5 8 Noroeste 21 Noroeste 0 -- -- 77
2020-03-20 10:00:00 14.1 3 Noroeste 13 Sudoeste 0 -- -- 86
2020-03-20 09:00:00 12.9 0 Calma 9 Oeste 0 -- -- 90
2020-03-20 08:00:00 11.5 0 Calma 6 Este 0 -- -- 87
2020-03-20 07:00:00 11.7 0 Calma 7 Sudeste 0 -- -- 94
2020-03-20 06:00:00 11.4 0 Calma 9 Sudeste 0 -- -- 89
2020-03-20 05:00:00 11.7 2 Norte 7 Norte 0 -- -- 94
2020-03-20 04:00:00 11.6 0 Calma 12 Sudeste 0 -- -- 87
2020-03-20 03:00:00 12 0 Calma 10 Sudeste 0 -- -- 86
2020-03-20 02:00:00 12.3 2 Norte 7 Norte 0 -- -- 93
2020-03-20 01:00:00 12.5 2 Norte 6 Sudoeste 0 -- -- 91
2020-03-20 00:00:00 12.5 2 Nordeste 10 Norte 0 -- -- 91
2020-03-19 23:00:00 12.9 2 Sur 11 Nordeste 0 -- -- 86
2020-03-19 22:00:00 13.1 2 Nordeste 6 Sudeste 0 -- -- 87
2020-03-19 21:00:00 13.6 4 Nordeste 11 Nordeste 0 -- -- 85
2020-03-19 20:00:00 14.4 2 Nordeste 10 Nordeste 0 -- -- 83
2020-03-19 19:00:00 15.1 5 Sur 13 Sudoeste 0 -- -- 79
2020-03-19 18:00:00 18.1 3 Noroeste 20 Noroeste 0 -- -- 67
2020-03-19 17:00:00 19 10 Oeste 19 Noroeste 0 -- -- 55
2020-03-19 16:00:00 19.1 6 Oeste 22 Oeste 0 -- -- 55
2020-03-19 15:00:00 19.7 5 Noroeste 24 Noroeste 0 -- -- 51
2020-03-19 14:00:00 18.9 11 Oeste 20 Noroeste 0 -- -- 50
2020-03-19 13:00:00 18.3 7 Oeste 24 Sudoeste 0 -- -- 50
2020-03-19 12:00:00 17.6 8 Noroeste 18 Sur 0 -- -- 52
2020-03-19 11:00:00 16.6 5 Noroeste 12 Oeste 0 -- -- 55
2020-03-19 10:00:00 14.4 3 Norte 14 Noroeste 0 -- -- 61
2020-03-19 09:00:00 12.8 3 Norte 10 Norte 0 -- -- 67
2020-03-19 08:00:00 11.2 0 Calma 9 Norte 0 -- -- 70
2020-03-19 07:00:00 10.7 4 Oeste 8 Noroeste 0 -- -- 74
2020-03-19 06:00:00 9.9 0 Calma 5 Nordeste 0 -- -- 80
2020-03-19 05:00:00 9.9 0 Calma 7 Norte 0 -- -- 80
2020-03-19 04:00:00 10 3 Noroeste 7 Norte 0 -- -- 84
2020-03-19 03:00:00 10.1 0 Calma 8 Sudeste 0 -- -- 81
2020-03-19 02:00:00 10.7 3 Este 11 Sudeste -- -- -- 75
2020-03-19 01:00:00 10.9 2 Norte 8 Sudoeste 0 -- -- 83
2020-03-19 00:00:00 11 3 Norte 12 Sudoeste 0 -- -- 79
2020-03-18 23:00:00 11.3 0 Calma 4 Oeste 0 -- -- 81
2020-03-18 22:00:00 11.5 2 Nordeste 9 Este 0 -- -- 81
2020-03-18 21:00:00 11.8 5 Oeste 9 Oeste 0 -- -- 76
2020-03-18 20:00:00 12.6 3 Norte 7 Nordeste 0 -- -- 72
2020-03-18 19:00:00 14.5 4 Noroeste 16 Oeste 0 -- -- 67
2020-03-18 18:00:00 15.4 6 Oeste 15 Noroeste 0 -- -- 67
2020-03-18 17:00:00 15.5 5 Oeste 17 Oeste 0 -- -- 61
2020-03-18 16:00:00 15.5 5 Oeste 18 Sudoeste 0 -- -- 64
2020-03-18 15:00:00 16.9 8 Noroeste 19 Noroeste 0 -- -- 63
2020-03-18 14:00:00 14.7 10 Noroeste 18 Noroeste 0 -- -- 71
2020-03-18 13:00:00 13.7 6 Noroeste 18 Oeste 0 -- -- 78
2020-03-18 12:00:00 15.5 8 Noroeste 22 Noroeste 0 -- -- 70
2020-03-18 11:00:00 15.4 6 Noroeste 19 Oeste 0 -- -- 68
2020-03-18 10:00:00 13.3 3 Noroeste 8 Noroeste 0 -- -- 75
2020-03-18 09:00:00 11.3 4 Nordeste 8 Este 0 -- -- 79
2020-03-18 08:00:00 10.1 2 Este 10 Norte 0 -- -- 82
2020-03-18 07:00:00 10.1 5 Norte 8 Norte 0 -- -- 88
2020-03-18 06:00:00 10 0 Calma 8 Este 0 -- -- 85
2020-03-18 05:00:00 9.7 0 Calma 9 Oeste 0 -- -- 82
2020-03-18 04:00:00 9.8 3 Nordeste 9 Sudeste 0 -- -- 82
2020-03-18 03:00:00 9.8 2 Norte 8 Sur 0 -- -- 84
2020-03-18 02:00:00 10 0 Calma 4 Este 0 -- -- 81
2020-03-18 01:00:00 10.2 0 Calma 6 Noroeste 0 -- -- 84
2020-03-18 00:00:00 10.4 5 Norte 11 Norte 0 -- -- 83
2020-03-17 23:00:00 10.8 3 Noroeste 12 Norte 0 -- -- 81
2020-03-17 22:00:00 11.4 11 Norte 15 Norte 0 -- -- 83
2020-03-17 21:00:00 11.9 2 Noroeste 6 Noroeste 0 -- -- 76
2020-03-17 20:00:00 12.3 3 Noroeste 14 Nordeste 0 -- -- 81
2020-03-17 19:00:00 13 4 Norte 12 Este 0 -- -- 77
2020-03-17 18:00:00 13.4 5 Norte 17 Este 0 -- -- 74
2020-03-17 17:00:00 13.6 6 Nordeste 17 Sudoeste 0 -- -- 74
2020-03-17 16:00:00 14 4 Oeste 14 Sudeste 0 -- -- 71
2020-03-17 15:00:00 14.9 5 Noroeste 19 Sudoeste 0 -- -- 66
2020-03-17 14:00:00 14.9 8 Noroeste 20 Norte 0 -- -- 63
2020-03-17 13:00:00 14.5 7 Noroeste 23 Noroeste 0 -- -- 64
2020-03-17 12:00:00 14.3 15 Noroeste 27 Noroeste 0 -- -- 67
2020-03-17 11:00:00 13.5 6 Noroeste 14 Norte 0 -- -- 70
2020-03-17 10:00:00 12.8 3 Norte 13 Noroeste 0 -- -- 70
2020-03-17 09:00:00 11.5 4 Nordeste 14 Norte 0 -- -- 75
2020-03-17 08:00:00 9.7 10 Norte 13 Norte 0 -- -- 78
2020-03-17 07:00:00 9.6 3 Norte 8 Norte 0 -- -- 83
2020-03-17 06:00:00 9.9 3 Norte 13 Norte 0 -- -- 78
2020-03-17 05:00:00 9.7 6 Norte 12 Norte 0 -- -- 80
2020-03-17 04:00:00 10 10 Nordeste 14 Norte 0 -- -- 79
2020-03-17 03:00:00 10.1 9 Norte 13 Norte 0 -- -- 77
2020-03-17 02:00:00 10.6 6 Norte 14 Nordeste 0 -- -- 78
2020-03-17 01:00:00 10.7 8 Norte 11 Norte 0 -- -- 77
2020-03-17 00:00:00 11.2 8 Norte 17 Nordeste 0 -- -- 78
2020-03-16 23:00:00 11.2 6 Norte 14 Norte 0 -- -- 79
2020-03-16 22:00:00 11.9 11 Nordeste 18 Norte 0 -- -- 76
2020-03-16 21:00:00 12.3 10 Norte 14 Noroeste 0 -- -- 78
2020-03-16 20:00:00 13.3 3 Nordeste 16 Noroeste 0 -- -- 73
2020-03-16 19:00:00 15.5 8 Noroeste 26 Noroeste 0 -- -- 67
2020-03-16 18:00:00 15.7 12 Noroeste 32 Noroeste 0 -- -- 69
2020-03-16 17:00:00 15.5 16 Noroeste 24 Norte 0 -- -- 65
2020-03-16 16:00:00 16.6 8 Noroeste 19 Noroeste 0 -- -- 60
2020-03-16 15:00:00 17.1 8 Noroeste 21 Oeste 0 -- -- 55
2020-03-16 14:00:00 17.1 8 Noroeste 19 Noroeste 0 -- -- 54
2020-03-16 13:00:00 17.1 10 Noroeste 19 Oeste 0 -- -- 54
2020-03-16 12:00:00 15.4 9 Norte 19 Noroeste 0 -- -- 56
2020-03-16 11:00:00 14.5 8 Noroeste 18 Noroeste 0 -- -- 62
2020-03-16 10:00:00 13.9 4 Noroeste 9 Noroeste 0 -- -- 63
2020-03-16 09:00:00 11.8 6 Nordeste 10 Nordeste 0 -- -- 71
2020-03-16 08:00:00 10.6 3 Norte 10 Norte 0 -- -- 78
2020-03-16 07:00:00 10.5 7 Norte 11 Norte 0 -- -- 77
2020-03-16 06:00:00 10.8 6 Norte 20 Norte 0 -- -- 77
2020-03-16 05:00:00 10.7 15 Norte 19 Nordeste 0 -- -- 75
2020-03-16 04:00:00 10.7 8 Norte 18 Norte 0 -- -- 75
2020-03-16 03:00:00 11 9 Norte 17 Nordeste 0 -- -- 75
2020-03-16 02:00:00 11.2 4 Norte 12 Norte 0 -- -- 79
2020-03-16 01:00:00 11.1 6 Nordeste 11 Norte 0 -- -- 80
2020-03-16 00:00:00 11.4 0 Calma 9 Oeste 0 -- -- 79
2020-03-15 23:00:00 11.4 5 Norte 17 Norte 0 -- -- 80
2020-03-15 22:00:00 11.5 11 Norte 14 Norte 0 -- -- 81
2020-03-15 21:00:00 11.8 10 Norte 18 Norte 0 -- -- 80
2020-03-15 20:00:00 12.7 14 Norte 19 Norte 0 -- -- 75
2020-03-15 19:00:00 14.1 6 Norte 18 Oeste 0 -- -- 71
2020-03-15 18:00:00 15.2 7 Oeste 16 Oeste 0 -- -- 65
2020-03-15 17:00:00 16 10 Noroeste 18 Noroeste 0 -- -- 62
2020-03-15 16:00:00 13.8 3 Norte 20 Oeste 0 -- -- 73
2020-03-15 15:00:00 17.4 6 Noroeste 15 Sudoeste 0 -- -- 60
2020-03-15 14:00:00 15.4 5 Oeste 17 Noroeste 0 -- -- 67
2020-03-15 13:00:00 13.1 8 Noroeste 21 Noroeste 0 -- -- 78
2020-03-15 12:00:00 14.6 5 Noroeste 14 Noroeste 0 -- -- 67
2020-03-15 11:00:00 14.4 4 Oeste 13 Norte 0 -- -- 70
2020-03-15 10:00:00 13 3 Noroeste 9 Sudoeste 0 -- -- 76
2020-03-15 09:00:00 11.7 0 Calma 5 Sudoeste 0 -- -- 80
2020-03-15 08:00:00 11.1 0 Calma 6 Sur 0 -- -- 78
2020-03-15 07:00:00 10.8 0 Calma 6 Oeste 0 -- -- 83
2020-03-15 06:00:00 11 3 Norte 7 Sudeste 0 -- -- 77
2020-03-15 05:00:00 11.4 3 Nordeste 13 Este 0 -- -- 77
2020-03-15 04:00:00 11.3 0 Calma 13 Este 0 -- -- 76
2020-03-15 03:00:00 11.6 2 Oeste 9 Sudeste 0 -- -- 69
2020-03-15 02:00:00 11.8 0 Calma 8 Nordeste 0 -- -- 68
2020-03-15 01:00:00 12 3 Noroeste 13 Sudeste 0 -- -- 68
2020-03-15 00:00:00 12.1 3 Nordeste 14 Nordeste 0 -- -- 67
2020-03-14 23:00:00 12.2 4 Norte 16 Este 0 -- -- 69
2020-03-14 22:00:00 12.3 4 Noroeste 14 Nordeste 0 -- -- 64
2020-03-14 21:00:00 12.6 2 Norte 7 Noroeste 0 -- -- 72
2020-03-14 20:00:00 13 0 Calma 17 Noroeste 0 -- -- 84
2020-03-14 19:00:00 13.9 10 Noroeste 19 Noroeste 0 -- -- 82
2020-03-14 18:00:00 15 12 Noroeste 21 Oeste 0 -- -- 76
2020-03-14 17:00:00 15.8 6 Oeste 16 Sur 0 -- -- 71
2020-03-14 16:00:00 15.1 8 Noroeste 15 Noroeste 0 -- -- 74
2020-03-14 15:00:00 15.1 8 Noroeste 17 Norte 0 -- -- 75
2020-03-14 14:00:00 14.7 6 Noroeste 19 Oeste 0 -- -- 81
2020-03-14 13:00:00 17.1 7 Oeste 19 Sur 0 -- -- 70
2020-03-14 12:00:00 17.2 5 Noroeste 15 Oeste 0 -- -- 69
2020-03-14 11:00:00 16.2 5 Norte 19 Sudoeste 0 -- -- 73
2020-03-14 10:00:00 14.7 5 Noroeste 19 Sudoeste 0 -- -- 79
2020-03-14 09:00:00 13.2 4 Norte 23 Nordeste 0 -- -- 72
2020-03-14 08:00:00 12 7 Norte 19 Nordeste 0 -- -- 79
2020-03-14 07:00:00 11.8 5 Norte 15 Nordeste 0 -- -- 80
2020-03-14 06:00:00 12.1 12 Norte 21 Nordeste 0 -- -- 77
2020-03-14 05:00:00 12.3 3 Norte 14 Norte 0 -- -- 72
2020-03-14 04:00:00 12.5 6 Nordeste 19 Este 0 -- -- 73
2020-03-14 03:00:00 12.7 8 Nordeste 21 Sudoeste 0 -- -- 73
2020-03-14 02:00:00 13 4 Noroeste 16 Sudeste 0 -- -- 76
2020-03-14 01:00:00 13.7 3 Norte 9 Norte 0 -- -- 66
2020-03-14 00:00:00 13.9 5 Norte 18 Sudoeste 0 -- -- 64
2020-03-13 23:00:00 13.8 8 Sur 22 Sudoeste 0 -- -- 70
2020-03-13 22:00:00 14.5 6 Nordeste 19 Sudoeste 0 -- -- 61
2020-03-13 21:00:00 15.4 3 Nordeste 12 Nordeste 0 -- -- 46
2020-03-13 20:00:00 15.8 0 Calma 15 Sur 0 -- -- 77
2020-03-13 19:00:00 16.4 3 Norte 15 Sudeste 0 -- -- 67
2020-03-13 18:00:00 17.2 6 Sudeste 12 Este 0 -- -- 65
2020-03-13 17:00:00 18.8 4 Sur 11 Sudeste 0 -- -- 69
2020-03-13 16:00:00 19.1 4 Sur 13 Norte 0 -- -- 67
2020-03-13 15:00:00 20.8 6 Noroeste 14 Norte 0 -- -- 66
2020-03-13 14:00:00 20.2 3 Oeste 14 Sudeste 0 -- -- 62
2020-03-13 13:00:00 19.8 4 Sudeste 14 Este 0 -- -- 64
2020-03-13 12:00:00 20.3 5 Este 13 Sudeste 0 -- -- 57
2020-03-13 11:00:00 22.1 4 Norte 13 Este 0 -- -- 22
2020-03-13 10:00:00 21.4 4 Nordeste 18 Sudeste 0 -- -- 15
2020-03-13 09:00:00 21.3 4 Sudeste 6 Sudeste 0 -- -- 13
2020-03-13 08:00:00 20.3 2 Nordeste 6 Nordeste 0 -- -- 12
2020-03-13 07:00:00 19.9 3 Nordeste 4 Nordeste 0 -- -- 12
2020-03-13 06:00:00 20.5 4 Sudeste 6 Este 0 -- -- 12
2020-03-13 05:00:00 20.6 4 Este 11 Sudeste 0 -- -- 12
2020-03-13 04:00:00 19.9 3 Sudeste 8 Nordeste 0 -- -- 13
2020-03-13 03:00:00 20.1 4 Norte 6 Norte 0 -- -- 13
2020-03-13 02:00:00 19.9 0 Calma 2 Noroeste 0 -- -- 12
2020-03-13 01:00:00 20.3 0 Calma 6 Sudeste 0 -- -- 12
2020-03-13 00:00:00 20 3 Sudeste 9 Sudeste 0 -- -- 14
2020-03-12 23:00:00 20.2 3 Sudeste 5 Sudeste 0 -- -- 15
2020-03-12 22:00:00 20 0 Calma 7 Sudeste 0 -- -- 14
2020-03-12 21:00:00 19.6 0 Calma 5 Noroeste 0 -- -- 21
2020-03-12 20:00:00 20.4 3 Sudeste 16 Norte 0 -- -- 27
2020-03-12 19:00:00 21.6 10 Norte 22 Norte 0 -- -- 21
2020-03-12 18:00:00 23 14 Norte 25 Norte 0 -- -- 21
2020-03-12 17:00:00 24.6 15 Norte 23 Norte 0 -- -- 22
2020-03-12 16:00:00 24.7 14 Norte 27 Norte 0 -- -- 15
2020-03-12 15:00:00 24.4 18 Norte 28 Norte 0 -- -- 16
2020-03-12 14:00:00 22.9 12 Noroeste 19 Noroeste 0 -- -- 29
2020-03-12 13:00:00 23.8 9 Norte 16 Noroeste 0 -- -- 16
2020-03-12 12:00:00 24.1 4 Norte 8 Este 0 -- -- 20
2020-03-12 11:00:00 24.2 4 Nordeste 12 Norte 0 -- -- 33
2020-03-12 10:00:00 22.8 3 Norte 9 Norte 0 -- -- 14
2020-03-12 09:00:00 20.8 4 Nordeste 14 Sudeste 0 -- -- 11
2020-03-12 08:00:00 20.5 3 Oeste 10 Oeste 0 -- -- 10
2020-03-12 07:00:00 19.7 3 Nordeste 13 Este 0 -- -- 11
2020-03-12 06:00:00 19.9 3 Oeste 10 Sudeste 0 -- -- 10
2020-03-12 05:00:00 19.9 0 Calma 8 Norte 0 -- -- 9
2020-03-12 04:00:00 20 3 Nordeste 12 Este 0 -- -- 9
2020-03-12 03:00:00 19.9 0 Calma 12 Sudoeste 0 -- -- 9
2020-03-12 02:00:00 19.5 2 Noroeste 13 Este 0 -- -- 10
2020-03-12 01:00:00 19.6 4 Norte 15 Sur 0 -- -- 9
2020-03-12 00:00:00 19.8 4 Noroeste 12 Oeste 0 -- -- 12
2020-03-11 23:00:00 19.3 2 Noroeste 7 Sudeste 0 -- -- 14
2020-03-11 22:00:00 19.7 2 Noroeste 12 Sudeste 0 -- -- 18
2020-03-11 21:00:00 19.5 4 Norte 8 Nordeste 0 -- -- 19
2020-03-11 20:00:00 19.7 4 Norte 8 Nordeste 0 -- -- 21
2020-03-11 19:00:00 22.8 0 Calma 10 Oeste 0 -- -- 16
2020-03-11 18:00:00 24.4 3 Sur 12 Noroeste 0 -- -- 12
2020-03-11 17:00:00 24.9 5 Oeste 13 Noroeste 0 -- -- 18
2020-03-11 16:00:00 25.8 6 Noroeste 23 Noroeste 0 -- -- 14
2020-03-11 15:00:00 25.6 8 Noroeste 18 Sudoeste 0 -- -- 19
2020-03-11 14:00:00 24.2 5 Oeste 14 Sudoeste 0 -- -- 28
2020-03-11 13:00:00 25.1 6 Noroeste 12 Oeste 0 -- -- 15
2020-03-11 12:00:00 24.5 3 Noroeste 8 Oeste 0 -- -- 20
2020-03-11 11:00:00 22.9 3 Nordeste 6 Norte 0 -- -- 17
2020-03-11 10:00:00 22.9 2 Norte 9 Oeste 0 -- -- 10
2020-03-11 09:00:00 20.9 4 Nordeste 18 Sudeste 0 -- -- 8
2020-03-11 08:00:00 19.6 3 Noroeste 14 Sudeste 0 -- -- 7
2020-03-11 07:00:00 19.4 4 Norte 26 Sudeste 0 -- -- 6
2020-03-11 06:00:00 17.5 4 Noroeste 15 Nordeste 0 -- -- 9
2020-03-11 05:00:00 15.8 9 Norte 11 Norte 0 -- -- 25
2020-03-11 04:00:00 15.7 3 Nordeste 13 Noroeste 0 -- -- 17
2020-03-11 03:00:00 16.3 4 Este 14 Sudeste 0 -- -- 41
2020-03-11 02:00:00 19 2 Sudoeste 7 Sur 0 -- -- 23
2020-03-11 01:00:00 19.4 3 Este 9 Sudeste 0 -- -- 17
2020-03-11 00:00:00 18.3 3 Nordeste 8 Nordeste 0 -- -- 19
2020-03-10 23:00:00 18 3 Oeste 8 Este 0 -- -- 21
2020-03-10 22:00:00 17.7 2 Sudeste 10 Sur 0 -- -- 27
2020-03-10 21:00:00 18.4 3 Nordeste 9 Sudeste 0 -- -- 29
2020-03-10 20:00:00 18.9 3 Noroeste 9 Noroeste 0 -- -- 40
2020-03-10 19:00:00 21.2 3 Noroeste 17 Norte 0 -- -- 34
2020-03-10 18:00:00 22.9 12 Norte 24 Norte 0 -- -- 25
2020-03-10 17:00:00 23.1 17 Norte 32 Noroeste 0 -- -- 32
2020-03-10 16:00:00 24 19 Norte 30 Noroeste 0 -- -- 21
2020-03-10 15:00:00 24.3 19 Noroeste 27 Norte 0 -- -- 23
2020-03-10 14:00:00 24.2 16 Norte 24 Norte 0 -- -- 16
2020-03-10 13:00:00 24.2 12 Norte 18 Norte 0 -- -- 15
2020-03-10 12:00:00 25 7 Noroeste 13 Oeste 0 -- -- 16
2020-03-10 11:00:00 25 4 Norte 10 Noroeste 0 -- -- 15
2020-03-10 10:00:00 22.7 2 Noroeste 15 Noroeste 0 -- -- 12
2020-03-10 09:00:00 21 3 Norte 34 Sudeste 0 -- -- 13
2020-03-10 08:00:00 19.6 6 Norte 16 Nordeste 0 -- -- 14
2020-03-10 07:00:00 18.9 6 Norte 24 Sudeste 0 -- -- 14
2020-03-10 06:00:00 18.6 5 Norte 27 Este 0 -- -- 15
2020-03-10 05:00:00 18.9 7 Este 31 Sudeste 0 -- -- 15
2020-03-10 04:00:00 18 3 Oeste 19 Sudeste 0 -- -- 16
2020-03-10 03:00:00 17.9 3 Norte 14 Sudeste 0 -- -- 18
2020-03-10 02:00:00 18.8 0 Calma 26 Nordeste 0 -- -- 16
2020-03-10 01:00:00 19.2 6 Norte 28 Nordeste 0 -- -- 17
2020-03-10 00:00:00 18.8 4 Norte 15 Sudoeste 0 -- -- 16
2020-03-09 23:00:00 18.9 3 Noroeste 9 Nordeste 0 -- -- 19
2020-03-09 22:00:00 19.4 2 Noroeste 11 Noroeste 0 -- -- 20
2020-03-09 21:00:00 19.5 5 Noroeste 8 Noroeste 0 -- -- 23
2020-03-09 20:00:00 19.4 2 Nordeste 6 Norte 0 -- -- 23
2020-03-09 19:00:00 21.6 4 Noroeste 10 Norte 0 -- -- 34
2020-03-09 18:00:00 22.4 10 Norte 19 Noroeste 0 -- -- 29
2020-03-09 17:00:00 22.7 12 Noroeste 18 Norte 0 -- -- 30
2020-03-09 16:00:00 24.1 7 Noroeste 21 Sudeste 0 -- -- 28
2020-03-09 15:00:00 24.5 6 Noroeste 14 Oeste 0 -- -- 29
2020-03-09 14:00:00 24.9 6 Noroeste 27 Sudoeste 0 -- -- 29
2020-03-09 13:00:00 24.5 8 Norte 30 Sur 0 -- -- 22
2020-03-09 12:00:00 23.6 4 Norte 30 Norte 0 -- -- 31
2020-03-09 11:00:00 23.9 7 Nordeste 24 Sur 0 -- -- 22
2020-03-09 10:00:00 23.3 6 Oeste 21 Sudoeste 0 -- -- 13
2020-03-09 09:00:00 21.6 6 Nordeste 23 Sudeste 0 -- -- 13
2020-03-09 08:00:00 21 7 Norte 26 Sudeste 0 -- -- 11
2020-03-09 07:00:00 20.8 9 Nordeste 25 Este 0 -- -- 11
2020-03-09 06:00:00 20.5 5 Noroeste 22 Este 0 -- -- 11
2020-03-09 05:00:00 20.6 5 Norte 32 Sur 0 -- -- 11
2020-03-09 04:00:00 20.2 4 Norte 14 Nordeste 0 -- -- 13
2020-03-09 03:00:00 20.5 4 Noroeste 22 Sudeste 0 -- -- 13
2020-03-09 02:00:00 21 10 Norte 42 Sudeste 0 -- -- 13
2020-03-09 01:00:00 20 4 Nordeste 13 Nordeste 0 -- -- 15
2020-03-09 00:00:00 20.2 4 Norte 18 Sudeste 0 -- -- 18
2020-03-08 23:00:00 21.1 5 Este 18 Nordeste 0 -- -- 15
2020-03-08 22:00:00 21.8 8 Este 26 Sudeste 0 -- -- 12
2020-03-08 21:00:00 20.5 3 Oeste 18 Este 0 -- -- 18
2020-03-08 20:00:00 20.5 8 Este 14 Sudeste 0 -- -- 29
2020-03-08 19:00:00 21.9 7 Norte 14 Norte 0 -- -- 27
2020-03-08 18:00:00 24 2 Noroeste 13 Nordeste 0 -- -- 31
2020-03-08 17:00:00 25.3 6 Norte 24 Noroeste 0 -- -- 26
2020-03-08 16:00:00 24.9 4 Norte 15 Este 0 -- -- 40
2020-03-08 15:00:00 23.8 6 Noroeste 16 Sur 0 -- -- 33
2020-03-08 14:00:00 23.1 4 Norte 14 Oeste 0 -- -- 44
2020-03-08 13:00:00 23.1 4 Norte 21 Sudoeste 0 -- -- 45
2020-03-08 12:00:00 21.7 5 Norte 17 Este 0 -- -- 41
2020-03-08 11:00:00 20.6 4 Norte 18 Sudeste 0 -- -- 44
2020-03-08 10:00:00 19.7 0 Calma 10 Este 0 -- -- 25
2020-03-08 09:00:00 17.6 4 Nordeste 14 Sudeste 0 -- -- 19
2020-03-08 08:00:00 14 6 Norte 12 Sudeste 0 -- -- 43
2020-03-08 07:00:00 14 7 Sudeste 17 Sudeste 0 -- -- 22
2020-03-08 06:00:00 14.8 3 Sudeste 16 Sudeste 0 -- -- 27
2020-03-08 05:00:00 13.6 3 Nordeste 10 Sudeste 0 -- -- 36
2020-03-08 04:00:00 12.8 3 Sudeste 19 Sudeste 0 -- -- 44
2020-03-08 03:00:00 11 3 Nordeste 17 Nordeste 0 -- -- 94
2020-03-08 02:00:00 11.1 12 Nordeste 18 Nordeste 0 -- -- 91
2020-03-08 01:00:00 11.3 10 Nordeste 12 Nordeste 0 -- -- 88
2020-03-08 00:00:00 11.7 4 Noroeste 16 Norte 0 -- -- 84
2020-03-07 23:00:00 12 8 Norte 28 Sudeste 0 -- -- 84
2020-03-07 22:00:00 12.8 9 Norte 17 Nordeste 0 -- -- 76
2020-03-07 21:00:00 14.7 2 Noroeste 8 Norte 0 -- -- 69
2020-03-07 20:00:00 15.3 4 Norte 10 Este 0 -- -- 67
2020-03-07 19:00:00 15.4 4 Sudeste 10 Sudeste 0 -- -- 75
2020-03-07 18:00:00 16.9 5 Noroeste 21 Oeste 0 -- -- 70
2020-03-07 17:00:00 17.6 5 Noroeste 21 Noroeste 0 -- -- 67
2020-03-07 16:00:00 17.3 6 Sudoeste 19 Sudoeste 0 -- -- 68
2020-03-07 15:00:00 17.9 5 Norte 19 Oeste 0 -- -- 66
2020-03-07 14:00:00 17.4 6 Norte 18 Oeste 0 -- -- 66
2020-03-07 13:00:00 17.5 6 Noroeste 17 Norte 0 -- -- 65
2020-03-07 12:00:00 17.1 5 Norte 14 Norte 0 -- -- 66
2020-03-07 11:00:00 15.8 4 Norte 22 Este 0 -- -- 68
2020-03-07 10:00:00 13.8 4 Noroeste 25 Este 0 -- -- 67
2020-03-07 09:00:00 11.8 8 Norte 37 Sudoeste 0 -- -- 76
2020-03-07 08:00:00 10.9 7 Norte 21 Este 0 -- -- 83
2020-03-07 07:00:00 10.8 10 Norte 30 Sur 0 -- -- 76
2020-03-07 06:00:00 10.6 2 Norte 25 Este 0 -- -- 79
2020-03-07 05:00:00 10.8 9 Nordeste 30 Sur 0 -- -- 76
2020-03-07 04:00:00 11.2 15 Oeste 36 Oeste 0 -- -- 78
2020-03-07 03:00:00 11 9 Nordeste 27 Este 0 -- -- 74
2020-03-07 02:00:00 11.3 8 Nordeste 24 Nordeste 0 -- -- 70
2020-03-07 01:00:00 11.4 9 Nordeste 27 Sudeste 0 -- -- 70
2020-03-07 00:00:00 11.6 5 Nordeste 20 Este 0 -- -- 82
2020-03-06 23:00:00 11.8 5 Norte 20 Sudoeste 0 -- -- 77
2020-03-06 22:00:00 11.8 8 Nordeste 27 Nordeste 0 -- -- 69
2020-03-06 21:00:00 12.4 7 Norte 15 Norte 0 -- -- 81
2020-03-06 20:00:00 12.7 8 Noroeste 23 Nordeste 0 -- -- 66
2020-03-06 19:00:00 14.5 5 Norte 18 Norte 0 -- -- 69
2020-03-06 18:00:00 17.1 7 Norte 20 Este 0 -- -- 61
2020-03-06 17:00:00 17.8 8 Noroeste 25 Sudoeste 0 -- -- 62
2020-03-06 16:00:00 17.7 8 Noroeste 30 Sudoeste 0 -- -- 62
2020-03-06 15:00:00 18.6 6 Norte 35 Sudoeste 0 -- -- 53
2020-03-06 14:00:00 19 7 Nordeste 28 Noroeste 0 -- -- 51
2020-03-06 13:00:00 17.5 8 Norte 29 Nordeste 0 -- -- 61
2020-03-06 12:00:00 17.5 6 Norte 24 Nordeste 0 -- -- 58
2020-03-06 11:00:00 15.8 7 Norte 35 Norte 0 -- -- 60
2020-03-06 10:00:00 13.9 14 Noroeste 28 Noroeste 0 -- -- 68
2020-03-06 09:00:00 12.7 10 Noroeste 21 Noroeste 0 -- -- 83
2020-03-06 08:00:00 12.5 12 Norte 20 Oeste 0 -- -- 82
2020-03-06 07:00:00 12.6 7 Sur 24 Oeste 0 -- -- 84
2020-03-06 06:00:00 13.2 12 Norte 15 Norte 0 -- -- 81
2020-03-06 05:00:00 14.3 5 Nordeste 17 Norte 0 -- -- 61
2020-03-06 04:00:00 14.4 7 Norte 12 Norte 0 -- -- 61
2020-03-06 03:00:00 14.6 0 Calma 10 Sudoeste 0 -- -- 70
2020-03-06 02:00:00 14.5 5 Norte 15 Este 0 -- -- 63
2020-03-06 01:00:00 14.2 12 Norte 13 Norte 0 -- -- 74
2020-03-06 00:00:00 15.1 0 Calma 14 Sudeste 0 -- -- 65
2020-03-05 23:00:00 14.2 13 Norte 19 Norte 0 -- -- 78
2020-03-05 22:00:00 15.3 10 Norte 22 Oeste 0 -- -- 70
2020-03-05 21:00:00 15.2 6 Norte 9 Nordeste 0 -- -- 72
2020-03-05 20:00:00 14.7 0 Calma 21 Norte 0 -- -- 86
2020-03-05 19:00:00 17.2 8 Norte 18 Sudeste 0 -- -- 78
2020-03-05 18:00:00 18.7 8 Sudeste 19 Sudeste 0 -- -- 70
2020-03-05 17:00:00 17.3 11 Norte 18 Norte 0 -- -- 79
2020-03-05 16:00:00 19.7 9 Norte 16 Norte 0 -- -- 69
2020-03-05 15:00:00 21.7 6 Norte 15 Noroeste 0 -- -- 58
2020-03-05 14:00:00 22.3 4 Norte 13 Este 0 -- -- 53
2020-03-05 13:00:00 19.8 3 Noroeste 10 Norte 0 -- -- 65
2020-03-05 12:00:00 18.7 9 Norte 19 Norte 0 -- -- 73
2020-03-05 11:00:00 18.1 5 Noroeste 18 Norte 0 -- -- 74
2020-03-05 10:00:00 17.2 6 Nordeste 18 Sudeste 0 -- -- 71
2020-03-05 09:00:00 16.9 5 Nordeste 12 Norte 0 -- -- 40
2020-03-05 08:00:00 17.8 3 Noroeste 10 Sudeste 0 -- -- 30
2020-03-05 07:00:00 16.9 9 Este 16 Este 0 -- -- 42
2020-03-05 06:00:00 17.1 5 Norte 13 Noroeste 0 -- -- 41
2020-03-05 05:00:00 18.6 3 Este 11 Sudeste 0 -- -- 36
2020-03-05 04:00:00 17.8 6 Sudeste 11 Este 0 -- -- 35
2020-03-05 03:00:00 15.8 5 Este 14 Sur 0 -- -- 69
2020-03-05 02:00:00 16 5 Sur 13 Sudeste 0 -- -- 78
2020-03-05 01:00:00 18.4 6 Norte 19 Sudeste 0 -- -- 36
2020-03-05 00:00:00 17.8 7 Sudeste 19 Este 0 -- -- 46